createdAt,value
2023-05-05T00:00:37.743Z,101110.91
2023-05-05T00:01:40.172Z,101105.13
2023-05-05T00:02:42.609Z,101097.06
2023-05-05T00:03:44.969Z,101100.25
2023-05-05T00:04:47.361Z,101103.16
2023-05-05T00:05:50.442Z,101105.78
2023-05-05T00:06:53.227Z,101105.03
2023-05-05T00:07:55.451Z,101107.00
2023-05-05T00:08:57.845Z,101103.50
2023-05-05T00:10:00.048Z,101110.25
2023-05-05T00:11:02.309Z,101113.09
2023-05-05T00:12:05.146Z,101111.31
2023-05-05T00:13:07.561Z,101113.44
2023-05-05T00:14:09.782Z,101115.47
2023-05-05T00:15:12.279Z,101117.47
2023-05-05T00:16:14.993Z,101114.19
2023-05-05T00:17:17.554Z,101110.28
2023-05-05T00:18:20.912Z,101107.53
2023-05-05T00:19:23.106Z,101102.03
2023-05-05T00:20:25.545Z,101107.16
2023-05-05T00:21:27.906Z,101105.28
2023-05-05T00:22:30.396Z,101103.03
2023-05-05T00:23:32.972Z,101099.00
2023-05-05T00:24:36.024Z,101092.00
2023-05-05T00:25:38.587Z,101096.03
2023-05-05T00:26:41.040Z,101099.63
2023-05-05T00:27:43.254Z,101098.94
2023-05-05T00:28:45.933Z,101092.97
2023-05-05T00:29:48.172Z,101091.38
2023-05-05T00:30:50.495Z,101095.19
2023-05-05T00:31:52.953Z,101084.69
2023-05-05T00:32:55.663Z,101086.16
2023-05-05T00:33:58.080Z,101089.72
2023-05-05T00:35:00.345Z,101081.19
2023-05-05T00:36:02.764Z,101083.50
2023-05-05T00:37:05.065Z,101082.88
2023-05-05T00:38:07.432Z,101084.31
2023-05-05T00:39:10.211Z,101087.28
2023-05-05T00:40:13.297Z,101085.88
2023-05-05T00:41:15.527Z,101089.34
2023-05-05T00:42:17.929Z,101088.19
2023-05-05T00:43:21.333Z,101091.69
2023-05-05T00:44:39.792Z,101083.28
2023-05-05T00:45:44.320Z,101085.00
2023-05-05T00:46:46.729Z,101092.25
2023-05-05T00:47:53.614Z,101087.69
2023-05-05T00:48:56.584Z,101085.25
2023-05-05T00:49:59.024Z,101086.31
2023-05-05T00:51:01.498Z,101088.97
2023-05-05T00:52:05.178Z,101080.66
2023-05-05T00:53:07.427Z,101089.34
2023-05-05T00:54:09.679Z,101079.28
2023-05-05T00:55:12.177Z,101084.41
2023-05-05T00:56:16.828Z,101083.47
2023-05-05T00:57:20.606Z,101084.19
2023-05-05T00:58:23.116Z,101083.28
2023-05-05T00:59:27.476Z,101089.91
2023-05-05T01:00:34.285Z,101084.28
2023-05-05T01:01:36.614Z,101082.06
2023-05-05T01:02:40.275Z,101080.75
2023-05-05T01:03:42.658Z,101082.53
2023-05-05T01:04:45.017Z,101077.78
2023-05-05T01:06:17.990Z,101073.63
2023-05-05T01:07:37.756Z,101080.16
2023-05-05T01:09:05.457Z,101077.69
2023-05-05T01:10:20.759Z,101081.00
2023-05-05T01:11:29.464Z,101078.78
2023-05-05T01:12:52.163Z,101090.91
2023-05-05T01:14:14.523Z,101087.53
2023-05-05T01:15:32.626Z,101084.19
2023-05-05T01:16:38.707Z,101087.88
2023-05-05T01:17:53.232Z,101082.22
2023-05-05T01:19:29.401Z,101080.38
2023-05-05T01:20:55.688Z,101077.91
2023-05-05T01:22:02.273Z,101076.78
2023-05-05T01:23:09.300Z,101078.22
2023-05-05T01:24:37.275Z,101081.41
2023-05-05T01:26:05.743Z,101084.38
2023-05-05T01:27:17.176Z,101084.03
2023-05-05T01:28:54.476Z,101080.84
2023-05-05T01:30:28.142Z,101086.44
2023-05-05T01:31:39.797Z,101083.53
2023-05-05T01:32:48.049Z,101074.06
2023-05-05T01:33:59.028Z,101078.22
2023-05-05T01:35:07.313Z,101079.59
2023-05-05T01:36:15.665Z,101080.47
2023-05-05T01:37:30.339Z,101084.81
2023-05-05T01:38:38.122Z,101081.91
2023-05-05T01:39:43.456Z,101082.03
2023-05-05T01:40:50.993Z,101081.59
2023-05-05T01:41:58.932Z,101080.63
2023-05-05T01:43:03.854Z,101080.03
2023-05-05T01:44:08.121Z,101076.56
2023-05-05T01:45:13.753Z,101074.03
2023-05-05T01:46:17.821Z,101083.53
2023-05-05T01:47:23.472Z,101083.19
2023-05-05T01:48:29.919Z,101082.25
2023-05-05T01:49:34.373Z,101080.00
2023-05-05T01:50:37.472Z,101081.16
2023-05-05T01:51:40.957Z,101079.59
2023-05-05T01:52:45.061Z,101078.38
2023-05-05T01:53:48.150Z,101080.72
2023-05-05T01:54:52.823Z,101087.13
2023-05-05T01:55:58.348Z,101080.72
2023-05-05T01:57:04.882Z,101080.84
2023-05-05T01:58:08.257Z,101082.72
2023-05-05T01:59:11.633Z,101078.06
2023-05-05T02:00:16.588Z,101074.47
2023-05-05T02:01:24.161Z,101074.19
2023-05-05T02:02:28.608Z,101079.25
2023-05-05T02:03:32.224Z,101077.41
2023-05-05T02:04:37.094Z,101084.94
2023-05-05T02:05:40.666Z,101084.78
2023-05-05T02:06:44.380Z,101077.97
2023-05-05T02:07:46.991Z,101081.13
2023-05-05T02:08:51.295Z,101080.72
2023-05-05T02:09:54.377Z,101078.22
2023-05-05T02:10:57.820Z,101082.16
2023-05-05T02:12:02.431Z,101072.41
2023-05-05T02:13:05.504Z,101072.00
2023-05-05T02:14:10.723Z,101078.25
2023-05-05T02:15:15.337Z,101078.25
2023-05-05T02:16:19.953Z,101084.63
2023-05-05T02:17:23.947Z,101085.59
2023-05-05T02:18:28.474Z,101081.19
2023-05-05T02:19:36.348Z,101074.53
2023-05-05T02:20:40.035Z,101077.16
2023-05-05T02:21:42.676Z,101077.78
2023-05-05T02:22:45.202Z,101077.03
2023-05-05T02:23:51.761Z,101071.72
2023-05-05T02:24:54.629Z,101077.25
2023-05-05T02:26:09.183Z,101067.16
2023-05-05T02:27:12.326Z,101060.13
2023-05-05T02:28:22.515Z,101061.78
2023-05-05T02:29:32.814Z,101071.44
2023-05-05T02:30:36.570Z,101063.09
2023-05-05T02:31:44.258Z,101067.75
2023-05-05T02:32:53.959Z,101059.22
2023-05-05T02:33:58.486Z,101066.22
2023-05-05T02:35:17.442Z,101066.97
2023-05-05T02:36:26.030Z,101070.66
2023-05-05T02:37:34.125Z,101065.06
2023-05-05T02:38:41.559Z,101071.44
2023-05-05T02:39:51.785Z,101069.16
2023-05-05T02:40:58.037Z,101073.00
2023-05-05T02:42:05.832Z,101080.28
2023-05-05T02:43:11.510Z,101077.50
2023-05-05T02:44:15.592Z,101074.47
2023-05-05T02:45:22.386Z,101069.19
2023-05-05T02:46:26.035Z,101062.56
2023-05-05T02:47:35.999Z,101069.06
2023-05-05T02:48:38.474Z,101064.66
2023-05-05T02:49:41.022Z,101065.81
2023-05-05T02:50:43.957Z,101072.22
2023-05-05T02:52:02.186Z,101062.81
2023-05-05T02:53:09.123Z,101059.63
2023-05-05T02:54:11.483Z,101062.53
2023-05-05T02:55:15.036Z,101067.94
2023-05-05T02:56:27.037Z,101062.66
2023-05-05T02:58:04.794Z,101062.44
2023-05-05T02:59:16.287Z,101067.69
2023-05-05T03:00:23.598Z,101072.09
2023-05-05T03:01:37.226Z,101070.31
2023-05-05T03:03:05.811Z,101073.59
2023-05-05T03:04:16.338Z,101071.31
2023-05-05T03:05:28.557Z,101076.31
2023-05-05T03:06:36.439Z,101076.75
2023-05-05T03:07:43.017Z,101074.91
2023-05-05T03:08:58.546Z,101075.38
2023-05-05T03:10:18.736Z,101070.25
2023-05-05T03:11:37.184Z,101074.03
2023-05-05T03:12:51.145Z,101081.09
2023-05-05T03:14:08.993Z,101075.69
2023-05-05T03:15:13.760Z,101075.09
2023-05-05T03:16:18.604Z,101073.38
2023-05-05T03:17:23.974Z,101074.44
2023-05-05T03:18:29.235Z,101069.31
2023-05-05T03:19:37.973Z,101078.09
2023-05-05T03:20:40.858Z,101076.13
2023-05-05T03:21:45.852Z,101072.72
2023-05-05T03:22:49.287Z,101079.63
2023-05-05T03:23:52.007Z,101074.19
2023-05-05T03:24:57.378Z,101080.06
2023-05-05T03:26:00.253Z,101084.91
2023-05-05T03:27:07.213Z,101083.50
2023-05-05T03:28:14.650Z,101088.22
2023-05-05T03:29:17.515Z,101077.53
2023-05-05T03:30:20.265Z,101080.75
2023-05-05T03:31:25.425Z,101084.69
2023-05-05T03:32:31.901Z,101083.88
2023-05-05T03:33:34.312Z,101085.03
2023-05-05T03:34:37.835Z,101078.44
2023-05-05T03:35:41.565Z,101083.06
2023-05-05T03:36:47.425Z,101083.22
2023-05-05T03:37:51.339Z,101079.28
2023-05-05T03:38:54.255Z,101077.28
2023-05-05T03:39:57.764Z,101077.28
2023-05-05T03:41:05.297Z,101085.66
2023-05-05T03:42:08.126Z,101081.78
2023-05-05T03:43:11.647Z,101085.25
2023-05-05T03:44:14.042Z,101083.50
2023-05-05T03:45:17.225Z,101080.41
2023-05-05T03:46:19.564Z,101082.59
2023-05-05T03:47:24.560Z,101083.91
2023-05-05T03:48:27.431Z,101083.31
2023-05-05T03:49:30.087Z,101090.16
2023-05-05T03:50:33.237Z,101082.34
2023-05-05T03:51:36.458Z,101089.16
2023-05-05T03:52:38.828Z,101080.47
2023-05-05T03:53:41.532Z,101085.06
2023-05-05T03:54:46.102Z,101081.72
2023-05-05T03:55:48.541Z,101083.31
2023-05-05T03:56:50.928Z,101078.63
2023-05-05T03:57:53.244Z,101079.09
2023-05-05T03:58:55.792Z,101079.13
2023-05-05T03:59:58.101Z,101081.41
2023-05-05T04:01:01.834Z,101084.13
2023-05-05T04:02:04.527Z,101084.97
2023-05-05T04:03:06.999Z,101080.94
2023-05-05T04:04:13.133Z,101086.94
2023-05-05T04:05:15.938Z,101086.06
2023-05-05T04:06:18.616Z,101078.84
2023-05-05T04:07:23.635Z,101084.97
2023-05-05T04:08:25.897Z,101083.34
2023-05-05T04:09:28.128Z,101085.53
2023-05-05T04:10:30.728Z,101084.06
2023-05-05T04:11:33.482Z,101084.72
2023-05-05T04:12:36.303Z,101087.13
2023-05-05T04:13:38.598Z,101084.69
2023-05-05T04:14:40.892Z,101084.53
2023-05-05T04:15:47.130Z,101092.22
2023-05-05T04:16:50.533Z,101093.22
2023-05-05T04:17:53.570Z,101092.00
2023-05-05T04:18:56.101Z,101095.13
2023-05-05T04:19:58.525Z,101090.75
2023-05-05T04:21:01.213Z,101088.94
2023-05-05T04:22:03.536Z,101098.41
2023-05-05T04:23:07.126Z,101091.09
2023-05-05T04:24:09.803Z,101094.38
2023-05-05T04:25:12.285Z,101096.34
2023-05-05T04:26:14.688Z,101089.94
2023-05-05T04:27:16.941Z,101089.94
2023-05-05T04:28:21.840Z,101089.88
2023-05-05T04:29:24.435Z,101092.31
2023-05-05T04:30:26.739Z,101089.22
2023-05-05T04:31:29.303Z,101094.31
2023-05-05T04:32:31.880Z,101096.13
2023-05-05T04:33:34.763Z,101092.50
2023-05-05T04:34:37.233Z,101092.94
2023-05-05T04:35:39.975Z,101090.88
2023-05-05T04:36:42.837Z,101097.47
2023-05-05T04:37:46.095Z,101099.66
2023-05-05T04:38:48.755Z,101094.31
2023-05-05T04:39:51.134Z,101096.22
2023-05-05T04:40:53.374Z,101097.44
2023-05-05T04:41:55.853Z,101093.91
2023-05-05T04:42:58.065Z,101102.59
2023-05-05T04:44:00.782Z,101099.06
2023-05-05T04:45:03.846Z,101094.22
2023-05-05T04:46:07.162Z,101102.69
2023-05-05T04:47:13.878Z,101096.91
2023-05-05T04:48:16.860Z,101094.19
2023-05-05T04:49:19.243Z,101105.19
2023-05-05T04:50:21.687Z,101092.28
2023-05-05T04:51:23.956Z,101100.56
2023-05-05T04:52:26.357Z,101105.66
2023-05-05T04:53:28.661Z,101104.03
2023-05-05T04:54:30.864Z,101099.91
2023-05-05T04:55:33.593Z,101104.09
2023-05-05T04:56:36.091Z,101100.78
2023-05-05T04:57:38.350Z,101107.75
2023-05-05T04:58:40.764Z,101108.88
2023-05-05T04:59:42.973Z,101117.63
2023-05-05T05:00:45.201Z,101116.47
2023-05-05T05:01:47.805Z,101118.28
2023-05-05T05:02:50.074Z,101115.38
2023-05-05T05:03:52.735Z,101114.63
2023-05-05T05:04:54.995Z,101122.44
2023-05-05T05:05:57.477Z,101113.75
2023-05-05T05:07:01.566Z,101114.75
2023-05-05T05:08:04.025Z,101114.41
2023-05-05T05:09:06.194Z,101123.50
2023-05-05T05:10:09.071Z,101118.03
2023-05-05T05:11:12.174Z,101132.75
2023-05-05T05:12:14.386Z,101121.13
2023-05-05T05:13:16.644Z,101125.47
2023-05-05T05:14:18.943Z,101117.69
2023-05-05T05:15:21.265Z,101120.06
2023-05-05T05:16:25.365Z,101120.56
2023-05-05T05:17:30.195Z,101120.47
2023-05-05T05:18:33.026Z,101120.56
2023-05-05T05:19:35.206Z,101121.19
2023-05-05T05:20:38.066Z,101126.66
2023-05-05T05:21:40.465Z,101126.25
2023-05-05T05:22:42.878Z,101121.97
2023-05-05T05:23:49.666Z,101129.88
2023-05-05T05:24:52.335Z,101127.28
2023-05-05T05:25:55.898Z,101126.09
2023-05-05T05:26:58.661Z,101124.31
2023-05-05T05:28:10.235Z,101129.97
2023-05-05T05:29:20.085Z,101127.75
2023-05-05T05:30:23.529Z,101126.59
2023-05-05T05:31:25.848Z,101125.53
2023-05-05T05:32:30.664Z,101119.50
2023-05-05T05:33:33.150Z,101129.16
2023-05-05T05:34:35.790Z,101124.09
2023-05-05T05:35:39.589Z,101134.66
2023-05-05T05:36:41.941Z,101126.41
2023-05-05T05:37:44.271Z,101122.03
2023-05-05T05:38:46.708Z,101124.25
2023-05-05T05:39:52.327Z,101122.50
2023-05-05T05:40:56.710Z,101127.88
2023-05-05T05:42:00.631Z,101127.97
2023-05-05T05:43:03.226Z,101125.44
2023-05-05T05:44:06.352Z,101123.28
2023-05-05T05:45:09.304Z,101127.25
2023-05-05T05:46:12.745Z,101124.06
2023-05-05T05:47:17.045Z,101129.56
2023-05-05T05:48:21.446Z,101124.47
2023-05-05T05:49:23.685Z,101127.28
2023-05-05T05:50:28.601Z,101131.03
2023-05-05T05:51:32.060Z,101129.22
2023-05-05T05:52:36.361Z,101125.94
2023-05-05T05:53:40.646Z,101117.91
2023-05-05T05:54:44.320Z,101119.63
2023-05-05T05:55:47.007Z,101125.44
2023-05-05T05:56:51.244Z,101138.56
2023-05-05T05:57:53.564Z,101124.00
2023-05-05T05:58:56.202Z,101125.94
2023-05-05T06:00:01.627Z,101133.84
2023-05-05T06:01:14.126Z,101127.00
2023-05-05T06:02:16.740Z,101121.28
2023-05-05T06:03:19.617Z,101125.84
2023-05-05T06:04:22.534Z,101126.34
2023-05-05T06:05:24.781Z,101126.28
2023-05-05T06:06:28.025Z,101129.91
2023-05-05T06:07:30.264Z,101128.91
2023-05-05T06:08:32.898Z,101127.88
2023-05-05T06:09:35.457Z,101129.63
2023-05-05T06:10:37.751Z,101126.47
2023-05-05T06:11:44.734Z,101132.59
2023-05-05T06:12:46.967Z,101134.66
2023-05-05T06:13:49.231Z,101127.94
2023-05-05T06:14:51.894Z,101127.28
2023-05-05T06:15:54.646Z,101128.28
2023-05-05T06:16:56.927Z,101131.16
2023-05-05T06:18:01.866Z,101134.56
2023-05-05T06:19:09.411Z,101126.34
2023-05-05T06:20:13.932Z,101134.00
2023-05-05T06:21:16.534Z,101129.38
2023-05-05T06:22:18.796Z,101135.91
2023-05-05T06:23:21.277Z,101136.69
2023-05-05T06:24:29.145Z,101138.50
2023-05-05T06:25:31.944Z,101125.72
2023-05-05T06:26:34.505Z,101140.56
2023-05-05T06:27:36.698Z,101140.16
2023-05-05T06:28:39.330Z,101136.06
2023-05-05T06:29:41.709Z,101136.56
2023-05-05T06:30:44.259Z,101130.84
2023-05-05T06:31:47.112Z,101129.47
2023-05-05T06:32:49.694Z,101139.22
2023-05-05T06:33:52.168Z,101128.50
2023-05-05T06:34:54.341Z,101131.53
2023-05-05T06:35:56.515Z,101135.94
2023-05-05T06:36:58.888Z,101134.94
2023-05-05T06:38:01.151Z,101138.59
2023-05-05T06:39:03.900Z,101135.38
2023-05-05T06:40:07.947Z,101133.00
2023-05-05T06:41:10.581Z,101131.81
2023-05-05T06:42:12.967Z,101131.63
2023-05-05T06:43:15.246Z,101137.13
2023-05-05T06:44:22.157Z,101134.31
2023-05-05T06:45:24.383Z,101131.91
2023-05-05T06:46:26.644Z,101132.47
2023-05-05T06:47:28.906Z,101138.41
2023-05-05T06:48:31.296Z,101132.53
2023-05-05T06:49:33.935Z,101130.44
2023-05-05T06:50:36.503Z,101131.06
2023-05-05T06:51:40.560Z,101132.22
2023-05-05T06:52:44.421Z,101126.25
2023-05-05T06:53:46.886Z,101125.63
2023-05-05T06:54:49.237Z,101132.28
2023-05-05T06:55:51.550Z,101125.00
2023-05-05T06:56:53.787Z,101127.19
2023-05-05T06:57:56.136Z,101129.03
2023-05-05T06:58:58.540Z,101124.38
2023-05-05T07:00:00.925Z,101116.88
2023-05-05T07:01:04.082Z,101122.38
2023-05-05T07:02:06.560Z,101120.31
2023-05-05T07:03:09.150Z,101118.97
2023-05-05T07:04:11.410Z,101115.56
2023-05-05T07:05:14.126Z,101119.34
2023-05-05T07:06:16.338Z,101116.78
2023-05-05T07:07:18.509Z,101120.41
2023-05-05T07:08:20.937Z,101116.69
2023-05-05T07:09:23.107Z,101113.09
2023-05-05T07:10:26.297Z,101119.31
2023-05-05T07:11:28.517Z,101114.91
2023-05-05T07:12:33.869Z,101114.97
2023-05-05T07:13:38.339Z,101121.63
2023-05-05T07:14:40.907Z,101124.22
2023-05-05T07:15:49.414Z,101109.16
2023-05-05T07:16:51.745Z,101119.59
2023-05-05T07:17:54.110Z,101116.25
2023-05-05T07:18:56.855Z,101112.66
2023-05-05T07:19:59.211Z,101111.38
2023-05-05T07:21:03.020Z,101111.47
2023-05-05T07:22:06.323Z,101106.22
2023-05-05T07:23:08.602Z,101103.88
2023-05-05T07:24:10.796Z,101102.28
2023-05-05T07:25:13.334Z,101102.94
2023-05-05T07:26:15.935Z,101103.13
2023-05-05T07:27:18.130Z,101101.03
2023-05-05T07:28:22.333Z,101101.81
2023-05-05T07:29:24.556Z,101105.84
2023-05-05T07:30:26.767Z,101106.44
2023-05-05T07:31:29.454Z,101101.69
2023-05-05T07:32:31.846Z,101099.34
2023-05-05T07:33:34.076Z,101102.66
2023-05-05T07:34:37.937Z,101093.59
2023-05-05T07:35:40.568Z,101101.41
2023-05-05T07:36:43.000Z,101101.78
2023-05-05T07:37:46.215Z,101100.50
2023-05-05T07:38:48.454Z,101103.81
2023-05-05T07:39:50.794Z,101097.88
2023-05-05T07:40:52.985Z,101097.22
2023-05-05T07:41:55.388Z,101106.34
2023-05-05T07:42:57.562Z,101100.97
2023-05-05T07:44:01.186Z,101104.91
2023-05-05T07:45:04.730Z,101107.50
2023-05-05T07:46:07.356Z,101107.09
2023-05-05T07:47:09.648Z,101108.31
2023-05-05T07:48:12.287Z,101110.06
2023-05-05T07:49:14.692Z,101102.94
2023-05-05T07:50:17.122Z,101109.91
2023-05-05T07:51:19.332Z,101120.59
2023-05-05T07:52:30.091Z,101113.84
2023-05-05T07:53:41.423Z,101108.34
2023-05-05T07:54:45.221Z,101114.06
2023-05-05T07:55:47.677Z,101119.47
2023-05-05T07:56:50.038Z,101110.25
2023-05-05T07:57:52.229Z,101114.19
2023-05-05T07:58:55.375Z,101110.34
2023-05-05T07:59:57.760Z,101104.03
2023-05-05T08:01:01.308Z,101113.50
2023-05-05T08:02:03.914Z,101115.72
2023-05-05T08:03:08.303Z,101114.69
2023-05-05T08:04:12.334Z,101114.16
2023-05-05T08:05:14.608Z,101111.19
2023-05-05T08:06:21.781Z,101118.38
2023-05-05T08:07:24.004Z,101119.81
2023-05-05T08:08:26.963Z,101122.28
2023-05-05T08:09:29.272Z,101114.91
2023-05-05T08:10:31.500Z,101116.44
2023-05-05T08:11:33.906Z,101123.22
2023-05-05T08:12:37.063Z,101123.47
2023-05-05T08:13:39.287Z,101116.13
2023-05-05T08:14:42.677Z,101117.66
2023-05-05T08:15:45.453Z,101121.22
2023-05-05T08:16:47.765Z,101123.50
2023-05-05T08:17:52.284Z,101115.22
2023-05-05T08:18:54.582Z,101118.41
2023-05-05T08:20:07.431Z,101115.81
2023-05-05T08:21:10.827Z,101118.00
2023-05-05T08:22:13.060Z,101116.44
2023-05-05T08:23:15.402Z,101116.06
2023-05-05T08:24:17.603Z,101121.06
2023-05-05T08:25:19.801Z,101117.78
2023-05-05T08:26:22.858Z,101119.16
2023-05-05T08:27:25.088Z,101117.50
2023-05-05T08:28:27.252Z,101115.63
2023-05-05T08:29:29.512Z,101114.72
2023-05-05T08:30:31.908Z,101114.16
2023-05-05T08:31:37.142Z,101120.53
2023-05-05T08:32:39.412Z,101113.31
2023-05-05T08:33:41.754Z,101123.56
2023-05-05T08:34:46.279Z,101115.84
2023-05-05T08:35:49.409Z,101119.59
2023-05-05T08:36:51.985Z,101110.75
2023-05-05T08:37:55.441Z,101117.63
2023-05-05T08:39:00.117Z,101115.84
2023-05-05T08:40:02.471Z,101119.22
2023-05-05T08:41:08.362Z,101119.16
2023-05-05T08:42:12.332Z,101108.41
2023-05-05T08:43:20.188Z,101113.41
2023-05-05T08:44:22.580Z,101117.25
2023-05-05T08:45:25.542Z,101110.78
2023-05-05T08:46:28.491Z,101110.53
2023-05-05T08:47:32.275Z,101111.69
2023-05-05T08:48:36.622Z,101116.72
2023-05-05T08:49:48.089Z,101105.66
2023-05-05T08:50:57.401Z,101118.81
2023-05-05T08:52:04.949Z,101118.09
2023-05-05T08:53:11.852Z,101123.19
2023-05-05T08:54:19.982Z,101120.47
2023-05-05T08:55:25.501Z,101123.47
2023-05-05T08:56:39.916Z,101114.50
2023-05-05T08:57:56.145Z,101117.75
2023-05-05T08:58:59.575Z,101112.72
2023-05-05T09:00:04.206Z,101114.13
2023-05-05T09:01:07.693Z,101117.28
2023-05-05T09:02:10.613Z,101120.84
2023-05-05T09:03:13.582Z,101119.47
2023-05-05T09:04:16.787Z,101115.25
2023-05-05T09:05:18.948Z,101112.56
2023-05-05T09:06:22.376Z,101117.50
2023-05-05T09:07:25.119Z,101106.81
2023-05-05T09:08:28.329Z,101105.81
2023-05-05T09:09:30.883Z,101106.91
2023-05-05T09:10:34.101Z,101100.41
2023-05-05T09:11:37.578Z,101101.38
2023-05-05T09:12:42.899Z,101096.63
2023-05-05T09:13:45.170Z,101102.91
2023-05-05T09:14:47.732Z,101095.41
2023-05-05T09:15:50.114Z,101095.94
2023-05-05T09:16:52.373Z,101091.97
2023-05-05T09:17:57.745Z,101100.19
2023-05-05T09:19:04.517Z,101096.91
2023-05-05T09:20:08.401Z,101092.81
2023-05-05T09:21:24.813Z,101095.13
2023-05-05T09:22:43.091Z,101097.41
2023-05-05T09:24:09.118Z,101096.50
2023-05-05T09:25:16.538Z,101106.19
2023-05-05T09:26:18.920Z,101094.53
2023-05-05T09:27:23.360Z,101093.06
2023-05-05T09:28:26.037Z,101092.94
2023-05-05T09:29:28.942Z,101087.75
2023-05-05T09:30:31.557Z,101098.59
2023-05-05T09:31:36.188Z,101092.84
2023-05-05T09:32:49.014Z,101090.59
2023-05-05T09:33:51.699Z,101088.59
2023-05-05T09:34:59.000Z,101095.88
2023-05-05T09:36:01.589Z,101089.34
2023-05-05T09:37:04.118Z,101081.41
2023-05-05T09:38:15.214Z,101084.13
2023-05-05T09:39:20.193Z,101092.03
2023-05-05T09:40:22.717Z,101085.63
2023-05-05T09:41:42.341Z,101089.84
2023-05-05T09:42:45.074Z,101090.31
2023-05-05T09:43:52.489Z,101076.25
2023-05-05T09:44:54.796Z,101075.78
2023-05-05T09:46:07.797Z,101091.09
2023-05-05T09:47:26.047Z,101083.94
2023-05-05T09:48:32.561Z,101085.19
2023-05-05T09:49:36.244Z,101085.13
2023-05-05T09:50:44.768Z,101080.44
2023-05-05T09:51:48.149Z,101087.22
2023-05-05T09:53:01.866Z,101082.22
2023-05-05T09:54:04.130Z,101089.47
2023-05-05T09:55:08.184Z,101077.94
2023-05-05T09:56:10.533Z,101070.50
2023-05-05T09:57:33.556Z,101076.53
2023-05-05T09:58:36.301Z,101075.94
2023-05-05T09:59:39.040Z,101076.81
2023-05-05T10:00:41.573Z,101086.13
2023-05-05T10:01:44.250Z,101085.50
2023-05-05T10:02:46.857Z,101079.66
2023-05-05T10:03:52.534Z,101086.22
2023-05-05T10:05:07.373Z,101077.16
2023-05-05T10:06:09.832Z,101077.41
2023-05-05T10:07:23.248Z,101072.84
2023-05-05T10:08:28.023Z,101071.88
2023-05-05T10:09:31.914Z,101069.84
2023-05-05T10:10:35.232Z,101068.03
2023-05-05T10:11:37.528Z,101077.81
2023-05-05T10:12:40.363Z,101067.00
2023-05-05T10:13:43.015Z,101068.25
2023-05-05T10:14:45.777Z,101067.78
2023-05-05T10:15:51.498Z,101072.00
2023-05-05T10:16:55.532Z,101070.00
2023-05-05T10:18:07.460Z,101071.88
2023-05-05T10:19:14.321Z,101066.63
2023-05-05T10:20:18.876Z,101066.78
2023-05-05T10:21:21.756Z,101063.03
2023-05-05T10:22:26.171Z,101057.00
2023-05-05T10:23:36.112Z,101064.19
2023-05-05T10:24:55.343Z,101056.28
2023-05-05T10:26:07.379Z,101058.06
2023-05-05T10:27:19.090Z,101055.19
2023-05-05T10:28:32.536Z,101056.84
2023-05-05T10:30:04.455Z,101056.84
2023-05-05T10:31:24.489Z,101054.63
2023-05-05T10:32:56.836Z,101050.34
2023-05-05T10:36:38.658Z,101046.19
2023-05-05T10:37:41.691Z,101051.72
2023-05-05T10:38:46.609Z,101049.63
2023-05-05T10:39:50.599Z,101048.88
2023-05-05T10:40:53.230Z,101038.28
2023-05-05T10:41:55.659Z,101041.75
2023-05-05T10:42:59.321Z,101036.88
2023-05-05T10:44:03.765Z,101037.16
2023-05-05T10:45:07.821Z,101034.78
2023-05-05T10:46:11.256Z,101039.13
2023-05-05T10:47:13.822Z,101033.75
2023-05-05T10:48:25.593Z,101033.19
2023-05-05T10:50:04.017Z,101035.00
2023-05-05T10:51:39.558Z,101037.91
2023-05-05T10:53:20.666Z,101028.25
2023-05-05T10:54:38.531Z,101021.59
2023-05-05T10:55:57.286Z,101030.56
2023-05-05T10:57:02.801Z,101029.00
2023-05-05T10:58:05.025Z,101027.69
2023-05-05T10:59:38.669Z,101028.44
2023-05-05T11:00:41.369Z,101023.81
2023-05-05T11:01:43.837Z,101020.72
2023-05-05T11:02:46.277Z,101022.50
2023-05-05T11:03:48.785Z,101029.66
2023-05-05T11:05:21.549Z,101032.03
2023-05-05T11:06:24.042Z,101023.84
2023-05-05T11:07:27.689Z,101020.22
2023-05-05T11:08:34.051Z,101029.59
2023-05-05T11:09:53.835Z,101021.66
2023-05-05T11:10:56.198Z,101022.19
2023-05-05T11:12:03.498Z,101016.72
2023-05-05T11:13:08.667Z,101017.06
2023-05-05T11:14:22.369Z,101012.19
2023-05-05T11:15:27.339Z,101015.16
2023-05-05T11:16:43.559Z,101013.97
2023-05-05T11:17:47.783Z,101021.03
2023-05-05T11:18:50.324Z,101009.94
2023-05-05T11:19:53.367Z,101007.00
2023-05-05T11:20:58.348Z,101005.63
2023-05-05T11:22:04.167Z,101008.13
2023-05-05T11:23:06.608Z,101007.53
2023-05-05T11:24:29.277Z,101013.06
2023-05-05T11:25:34.501Z,101004.75
2023-05-05T11:26:51.478Z,101004.44
2023-05-05T11:28:10.691Z,101006.84
2023-05-05T11:29:13.082Z,101001.28
2023-05-05T11:30:15.630Z,101002.56
2023-05-05T11:31:19.226Z,100998.97
2023-05-05T11:32:21.498Z,101005.38
2023-05-05T11:33:31.851Z,101001.38
2023-05-05T11:34:34.377Z,101009.09
2023-05-05T11:35:55.568Z,101000.03
2023-05-05T11:37:03.427Z,100997.16
2023-05-05T11:38:07.993Z,100991.91
2023-05-05T11:39:24.166Z,100998.19
2023-05-05T11:40:36.957Z,100998.25
2023-05-05T11:42:06.547Z,100994.03
2023-05-05T11:43:12.125Z,100993.88
2023-05-05T11:44:16.625Z,100992.75
2023-05-05T11:45:21.740Z,100998.53
2023-05-05T11:46:24.035Z,101004.75
2023-05-05T11:47:28.270Z,100999.44
2023-05-05T11:48:30.634Z,100994.25
2023-05-05T11:49:35.376Z,100996.25
2023-05-05T11:50:37.963Z,100996.63
2023-05-05T11:51:40.396Z,101002.06
2023-05-05T11:52:43.018Z,100994.00
2023-05-05T11:53:49.716Z,100998.22
2023-05-05T11:54:52.000Z,100994.28
2023-05-05T11:56:06.966Z,100997.59
2023-05-05T11:57:09.389Z,100995.03
2023-05-05T11:58:18.708Z,100985.63
2023-05-05T11:59:21.696Z,100994.19
2023-05-05T12:00:33.916Z,100991.25
2023-05-05T12:01:42.878Z,100998.88
2023-05-05T12:02:45.423Z,100994.16
2023-05-05T12:03:48.122Z,100993.91
2023-05-05T12:04:51.317Z,100986.84
2023-05-05T12:05:56.719Z,100996.25
2023-05-05T12:07:00.039Z,100993.41
2023-05-05T12:08:02.302Z,100994.38
2023-05-05T12:09:04.710Z,100990.13
2023-05-05T12:10:07.859Z,100987.94
2023-05-05T12:11:11.695Z,100991.38
2023-05-05T12:12:15.302Z,100984.50
2023-05-05T12:13:21.173Z,100993.75
2023-05-05T12:14:25.610Z,100988.69
2023-05-05T12:15:29.700Z,100992.66
2023-05-05T12:16:31.991Z,100985.84
2023-05-05T12:17:42.865Z,100989.75
2023-05-05T12:18:45.429Z,100980.53
2023-05-05T12:19:54.704Z,100977.06
2023-05-05T12:20:56.961Z,100973.31
2023-05-05T12:22:03.127Z,100969.50
2023-05-05T12:23:05.661Z,100968.00
2023-05-05T12:24:13.174Z,100964.00
2023-05-05T12:25:16.337Z,100966.88
2023-05-05T12:26:26.432Z,100960.41
2023-05-05T12:27:29.256Z,100964.50
2023-05-05T12:28:46.393Z,100949.91
2023-05-05T12:29:49.266Z,100964.66
2023-05-05T12:31:00.740Z,100952.31